Time;durP1;ratioP1;P1;durP2;ratioP2;P2;SDS_P1;SDS_P2;PMS_P1;PMS_P2;Temp;Humidity;BMP_temperature;BMP_pressure;BME280_temperature;BME280_humidity;BME280_pressure;Samples;Min_cycle;Max_cycle;Signal;HPM_P1;HPM_P2
2022/11/18 18:52:16;;;;;;;24.10;18.10;;;;;;;9.22;85.62;99449.19;105193;1310;548015;-65
2022/11/18 18:54:42;;;;;;;23.10;16.90;;;;;;;10.85;78.62;99444.27;105549;1312;21981;-65
2022/11/18 18:57:07;;;;;;;20.60;13.40;;;;;;;11.23;76.38;99438.09;105360;1308;21973;-70
2022/11/18 18:59:33;;;;;;;20.00;11.10;;;;;;;11.43;75.27;99434.67;105494;1313;23732;-71
2022/11/18 19:01:59;;;;;;;16.70;9.70;;;;;;;11.53;74.52;99431.91;105577;1310;22030;-73
2022/11/18 19:04:26;;;;;;;15.20;9.80;;;;;;;11.81;73.87;99434.88;105324;1310;292007;-65
2022/11/18 19:06:51;;;;;;;15.90;8.70;;;;;;;11.97;73.55;99437.55;105673;1310;22760;-74
2022/11/18 19:09:18;;;;;;;18.80;8.80;;;;;;;12.12;73.29;99434.95;105682;1310;23079;-69
2022/11/18 19:14:29;;;;;;;11.40;7.90;;;;;;;12.20;72.88;99424.15;105625;1309;21955;-72
2022/11/18 19:16:57;;;;;;;13.30;8.70;;;;;;;12.25;72.96;99421.69;105599;1309;21960;-73
2022/11/18 19:22:10;;;;;;;14.70;8.30;;;;;;;12.49;72.29;99400.98;105608;1307;22014;-64
2022/11/18 19:24:36;;;;;;;12.60;7.60;;;;;;;12.58;72.04;99389.03;105744;1305;21978;-74
2022/11/18 19:27:03;;;;;;;14.00;8.10;;;;;;;12.60;71.88;99381.58;105670;1306;22005;-74
2022/11/18 19:29:28;;;;;;;12.10;7.50;;;;;;;12.64;71.94;99374.02;105741;1307;21967;-74
2022/11/18 19:31:54;;;;;;;13.60;8.50;;;;;;;12.74;71.79;99366.27;105730;1306;22426;-72
2022/11/18 19:34:20;;;;;;;12.10;7.80;;;;;;;12.88;71.11;99360.29;105631;1306;21977;-75
2022/11/18 19:36:46;;;;;;;12.80;9.00;;;;;;;12.98;70.85;99355.34;105595;1306;23658;-63
2022/11/18 19:39:12;;;;;;;15.50;9.10;;;;;;;12.95;70.96;99343.83;105611;1307;22761;-64
2022/11/18 19:41:38;;;;;;;15.00;9.10;;;;;;;12.93;70.97;99341.09;105647;1306;21980;-64
2022/11/18 19:44:04;;;;;;;15.40;8.40;;;;;;;12.99;70.87;99334.55;105654;1305;21982;-65
2022/11/18 19:46:30;;;;;;;12.10;8.00;;;;;;;13.11;70.48;99328.23;105677;1307;21968;-75
2022/11/18 19:48:56;;;;;;;14.90;8.70;;;;;;;13.25;70.05;99327.70;105648;1306;22014;-65
2022/11/18 19:51:23;;;;;;;16.40;10.50;;;;;;;13.28;70.17;99333.20;105716;1305;21985;-74
2022/11/18 19:53:49;;;;;;;17.10;10.30;;;;;;;13.39;70.28;99333.33;105865;1306;21978;-66
2022/11/18 19:56:19;;;;;;;16.90;11.30;;;;;;;13.42;70.50;99329.30;105862;1306;21977;-73
2022/11/18 19:58:49;;;;;;;15.20;10.10;;;;;;;13.46;70.20;99328.65;105753;1298;21967;-63
2022/11/18 20:01:18;;;;;;;14.70;9.50;;;;;;;13.52;69.89;99331.39;105708;1306;21968;-74
2022/11/18 20:03:46;;;;;;;14.70;10.00;;;;;;;13.60;69.67;99331.95;105725;1306;21986;-63
2022/11/18 20:06:13;;;;;;;14.30;8.70;;;;;;;13.68;69.42;99326.86;105789;1306;21958;-74
2022/11/18 20:08:39;;;;;;;18.80;9.80;;;;;;;13.79;69.10;99324.81;105799;1306;21970;-63
2022/11/18 20:11:10;;;;;;;17.90;10.50;;;;;;;13.87;69.00;99319.21;105815;1306;21976;-75
2022/11/18 20:13:36;;;;;;;17.40;10.60;;;;;;;13.84;69.29;99318.44;105804;1306;21971;-63
2022/11/18 20:16:03;;;;;;;18.60;10.80;;;;;;;13.86;69.21;99315.17;105704;1306;21990;-73
2022/11/18 20:18:30;;;;;;;16.30;10.20;;;;;;;13.89;69.08;99312.23;105765;1306;22773;-64
2022/11/18 20:21:07;;;;;;;14.80;10.40;;;;;;;13.92;68.88;99312.98;105770;1306;21968;-72
2022/11/18 20:23:37;;;;;;;20.00;11.30;;;;;;;13.91;68.79;99305.95;105914;1306;21974;-64
2022/11/18 20:26:08;;;;;;;16.20;11.80;;;;;;;13.89;68.84;99303.43;105809;1306;21972;-73
2022/11/18 20:28:36;;;;;;;15.70;11.70;;;;;;;13.90;68.74;99298.23;105896;1306;21981;-74
2022/11/18 20:31:06;;;;;;;20.70;13.00;;;;;;;13.94;68.74;99294.92;105827;1305;22021;-74
2022/11/18 20:33:34;;;;;;;19.40;12.40;;;;;;;13.95;68.62;99283.39;105704;1306;21982;-73
2022/11/18 20:36:08;;;;;;;19.60;12.00;;;;;;;13.97;68.53;99277.52;105629;1306;21976;-63
2022/11/18 20:38:34;;;;;;;17.90;12.30;;;;;;;13.99;68.40;99272.98;105648;1306;21990;-63
2022/11/18 20:41:07;;;;;;;17.90;11.10;;;;;;;14.01;68.17;99267.61;105635;1307;22090;-74
2022/11/18 20:43:37;;;;;;;20.10;13.10;;;;;;;14.05;68.27;99261.09;105703;1306;23747;-63
2022/11/18 20:46:03;;;;;;;16.30;11.30;;;;;;;14.07;68.17;99257.15;105677;1306;21976;-62
2022/11/18 20:48:31;;;;;;;17.30;12.10;;;;;;;14.06;68.02;99255.77;105807;1305;21971;-74
2022/11/18 20:51:01;;;;;;;16.20;11.90;;;;;;;14.04;67.95;99250.92;105759;1306;23067;-63
2022/11/18 20:53:27;;;;;;;13.90;10.60;;;;;;;14.04;67.85;99250.58;105699;1305;21975;-62
2022/11/18 20:55:52;;;;;;;15.30;10.60;;;;;;;14.02;67.91;99245.70;105832;1305;21965;-73
2022/11/18 20:58:18;;;;;;;17.80;9.60;;;;;;;13.99;67.89;99238.79;105669;1306;21970;-72
2022/11/18 21:00:46;;;;;;;14.80;9.20;;;;;;;13.97;68.06;99227.75;105708;1304;22181;-63
2022/11/18 21:03:11;;;;;;;13.10;9.70;;;;;;;13.96;68.18;99218.79;105715;1306;21966;-63
2022/11/18 21:05:39;;;;;;;13.30;8.80;;;;;;;13.97;68.30;99220.19;105799;1306;21977;-64
2022/11/18 21:08:09;;;;;;;11.70;8.50;;;;;;;13.96;68.26;99215.98;105950;1304;21966;-72
2022/11/18 21:10:35;;;;;;;14.90;8.10;;;;;;;13.98;68.51;99206.73;105988;1304;21980;-63
2022/11/18 21:15:46;;;;;;;13.00;7.70;;;;;;;14.06;68.40;99201.29;105965;1292;22115;-68
2022/11/18 21:18:12;;;;;;;12.90;7.90;;;;;;;14.05;68.67;99195.31;105897;1305;21976;-67
2022/11/18 21:23:23;;;;;;;11.30;6.10;;;;;;;14.14;68.46;99186.60;105877;1303;22436;-65
2022/11/18 21:25:51;;;;;;;11.90;6.30;;;;;;;14.17;68.66;99176.06;105883;1304;22019;-73
2022/11/18 21:28:18;;;;;;;10.40;6.00;;;;;;;14.17;68.93;99170.40;105967;1306;21966;-65
2022/11/18 21:30:43;;;;;;;8.40;5.00;;;;;;;14.24;68.93;99163.05;105933;1306;21989;-71
2022/11/18 21:33:11;;;;;;;9.70;5.30;;;;;;;14.28;68.74;99156.31;105919;1305;22020;-71
2022/11/18 21:35:37;;;;;;;8.30;4.60;;;;;;;14.31;68.60;99150.55;105957;1305;21966;-72
2022/11/18 21:38:03;;;;;;;10.40;4.50;;;;;;;14.33;68.59;99138.10;105963;1305;21987;-73
2022/11/18 21:40:29;;;;;;;7.10;3.90;;;;;;;14.36;68.33;99132.13;106003;1306;21967;-63
2022/11/18 21:42:55;;;;;;;8.00;5.20;;;;;;;14.39;68.15;99134.63;105946;1305;21977;-72
2022/11/18 21:45:21;;;;;;;9.50;5.00;;;;;;;14.39;67.93;99135.70;105989;1306;21974;-63
2022/11/18 21:47:46;;;;;;;9.30;6.10;;;;;;;14.34;67.93;99134.70;105912;1306;21994;-71
2022/11/18 21:50:12;;;;;;;14.30;6.80;;;;;;;14.29;68.04;99133.86;105750;1306;21960;-63
2022/11/18 21:52:39;;;;;;;9.20;6.10;;;;;;;14.26;68.21;99131.70;106032;1304;21968;-63
2022/11/18 21:55:05;;;;;;;10.40;6.30;;;;;;;14.25;68.30;99127.36;106100;1304;21988;-63
2022/11/18 21:57:32;;;;;;;11.20;6.10;;;;;;;14.22;68.38;99121.86;105947;1304;21985;-71
2022/11/18 21:59:58;;;;;;;13.80;6.50;;;;;;;14.19;68.40;99119.55;105881;1305;22009;-72
2022/11/18 22:02:25;;;;;;;9.90;6.50;;;;;;;14.15;68.47;99112.45;105995;1296;21970;-64
2022/11/18 22:04:53;;;;;;;9.20;6.40;;;;;;;14.14;68.33;99113.58;105889;1305;21967;-72
2022/11/18 22:07:20;;;;;;;11.00;7.20;;;;;;;14.11;68.28;99105.96;105972;1304;21961;-63
2022/11/18 22:09:48;;;;;;;10.90;6.40;;;;;;;14.14;68.14;99102.83;105909;1301;21963;-64
2022/11/18 22:12:14;;;;;;;11.30;7.80;;;;;;;14.09;68.17;99099.71;105958;1304;21966;-64
2022/11/18 22:14:40;;;;;;;10.00;6.10;;;;;;;14.01;68.41;99093.72;106017;1304;21981;-63
2022/11/18 22:17:06;;;;;;;9.20;6.60;;;;;;;13.94;68.90;99085.23;106046;1306;22002;-69
2022/11/18 22:19:31;;;;;;;10.50;7.00;;;;;;;13.92;68.88;99086.75;105841;1304;21972;-63
2022/11/18 22:21:57;;;;;;;10.40;6.20;;;;;;;13.91;69.00;99089.63;105887;1306;21985;-64
2022/11/18 22:24:24;;;;;;;11.90;6.90;;;;;;;13.91;68.83;99086.60;105889;1305;21978;-71
2022/11/18 22:26:51;;;;;;;11.30;7.70;;;;;;;13.88;68.91;99091.53;105838;1305;21972;-62
2022/11/18 22:29:17;;;;;;;11.70;7.10;;;;;;;13.86;68.98;99085.44;105815;1305;22006;-63
2022/11/18 22:31:43;;;;;;;12.00;6.50;;;;;;;13.84;69.02;99080.41;105862;1302;22437;-62
2022/11/18 22:34:09;;;;;;;11.00;7.50;;;;;;;13.81;69.59;99072.06;106054;1304;21965;-70
2022/11/18 22:36:35;;;;;;;13.40;7.30;;;;;;;13.86;69.29;99064.64;106099;1304;21974;-71
2022/11/18 22:39:01;;;;;;;9.50;6.80;;;;;;;13.92;68.87;99058.70;105977;1304;22052;-63
2022/11/18 22:44:14;;;;;;;11.30;7.00;;;;;;;13.98;68.81;99041.64;106103;1303;21970;-70
2022/11/18 22:46:42;;;;;;;9.10;6.70;;;;;;;14.00;68.57;99024.28;106165;1303;21978;-62
2022/11/18 22:49:09;;;;;;;10.40;6.70;;;;;;;14.05;68.57;99016.67;106159;1304;21966;-63
2022/11/18 22:51:36;;;;;;;11.10;6.90;;;;;;;14.06;68.55;99017.48;106161;1304;21975;-71
2022/11/18 22:54:05;;;;;;;11.20;6.80;;;;;;;14.08;68.53;99016.84;105934;1304;22011;-63
2022/11/18 22:56:31;;;;;;;9.90;7.40;;;;;;;14.07;68.86;99006.85;106102;1304;21964;-71
2022/11/18 22:58:57;;;;;;;9.40;7.60;;;;;;;14.07;68.48;99001.02;106033;1304;21966;-72
2022/11/18 23:01:23;;;;;;;12.30;7.30;;;;;;;14.12;68.71;98994.60;106044;1305;22021;-72
2022/11/18 23:03:50;;;;;;;10.80;8.30;;;;;;;14.15;68.85;98989.54;106111;1304;21957;-64
2022/11/18 23:06:16;;;;;;;9.30;7.80;;;;;;;14.15;68.79;98980.52;105940;1306;21964;-72
2022/11/18 23:08:42;;;;;;;9.40;6.90;;;;;;;13.90;69.45;98975.58;106069;1304;21974;-64
2022/11/18 23:11:12;;;;;;;11.90;7.20;;;;;;;13.87;69.52;98971.32;106018;1304;21976;-62
2022/11/18 23:14:02;;;;;;;10.20;6.20;;;;;;;13.87;69.55;98960.73;105912;1306;21944;-62
2022/11/18 23:16:31;;;;;;;10.60;6.60;;;;;;;13.89;69.57;98951.45;105822;1305;21963;-71
2022/11/18 23:18:59;;;;;;;12.00;6.40;;;;;;;13.88;69.87;98943.77;105851;1306;22014;-62
2022/11/18 23:21:25;;;;;;;10.80;6.40;;;;;;;13.89;69.64;98940.71;105978;1306;21976;-70
2022/11/18 23:23:50;;;;;;;9.50;5.40;;;;;;;13.89;69.80;98937.20;106028;1300;21970;-69
2022/11/18 23:26:16;;;;;;;11.60;6.20;;;;;;;13.87;69.94;98938.70;106108;1304;22000;-63
2022/11/18 23:28:42;;;;;;;8.10;4.80;;;;;;;13.89;69.79;98940.02;105944;1301;21975;-69
2022/11/18 23:31:10;;;;;;;12.70;5.30;;;;;;;13.93;69.59;98931.34;106058;1304;21977;-69
2022/11/18 23:33:36;;;;;;;8.30;5.40;;;;;;;14.01;69.70;98918.26;106085;1304;21998;-63
2022/11/18 23:36:03;;;;;;;9.40;5.50;;;;;;;14.06;69.46;98911.86;106068;1301;22011;-69
2022/11/18 23:38:30;;;;;;;7.50;4.60;;;;;;;14.06;69.41;98905.66;105963;1304;21976;-62
2022/11/18 23:40:57;;;;;;;6.80;5.00;;;;;;;14.05;69.58;98903.41;105990;1305;21977;-63
2022/11/18 23:43:23;;;;;;;7.80;4.80;;;;;;;14.05;69.40;98902.02;105977;1305;21983;-64
2022/11/18 23:45:50;;;;;;;9.80;5.50;;;;;;;14.06;69.41;98898.44;106097;1305;21977;-63
2022/11/18 23:48:16;;;;;;;8.80;4.90;;;;;;;14.08;69.35;98897.61;106105;1304;21968;-70
2022/11/18 23:50:54;;;;;;;7.90;4.80;;;;;;;14.09;69.53;98891.95;106139;1301;21966;-70
2022/11/18 23:53:20;;;;;;;9.10;4.90;;;;;;;14.11;69.46;98890.77;106015;1306;21972;-63
2022/11/18 23:55:47;;;;;;;10.20;5.80;;;;;;;14.22;69.52;98885.30;106001;1306;22428;-63
2022/11/18 23:58:13;;;;;;;11.20;5.50;;;;;;;14.26;69.39;98879.05;106141;1304;21966;-70
